Gmunden, Austria
Current Conditions -  °F | °C
As of 2:20 PM on Tuesday 27 Jan 2015 (Local Time) from LOWL Reporting Station
Broken Clouds Broken Clouds  
Wind Chill: 27°   Ceiling: 11000
Heat Index: 36°   Visibility: 6mi
Dew Point: 30°   Wind: 14mph
Humidity: 81%   Direction: 280°W
Pressure: 30.03"   Gusts: NA
Location:  47.92°N, 13.81°E
Report Text: LOWL 271220Z 28012KT 9999 FEW018 SCT026 BKN110 02/M01 Q1017 R08/290195 TEMPO 4000 -SHSN
Loading
Personal Weather Stations






























Interactive Weather Map New forecast layout! Learn more

10-Day Weather Forecast

Advertisements
Track Severe Weather on mobile